Paxton, Texas
Current Conditions -  °F | °C
As of 7:56 AM on Sunday 25 Jan 2015 (Local Time) from KSHV Reporting Station
Few Clouds Few Clouds  
Wind Chill: 36°   Ceiling: Unl
Heat Index: 42°   Visibility: 10mi
Dew Point: 35°   Wind: 12mph
Humidity: 76%   Direction: 240°WSW
Pressure: 29.9"   Gusts: NA
Location:  31.9194°N, 94.0667°W
Report Text: KSHV 251356Z 24010KT 10SM FEW140 06/02 A2990 RMK AO2 SLP124 T00560017
Loading
Personal Weather Stations






























Interactive Weather Map New forecast layout! Learn more

10-Day Weather Forecast

Advertisements
Track Severe Weather on mobile